Time;durP1;ratioP1;P1;durP2;ratioP2;P2;SDS_P1;SDS_P2;PMS_P1;PMS_P2;Temp;Humidity;BMP_temperature;BMP_pressure;BME280_temperature;BME280_humidity;BME280_pressure;Samples;Min_cycle;Max_cycle;Signal;HPM_P1;HPM_P2
2023/12/21 00:02:00;;;;;;;;;;;;;;;;;;5038670;28;5055;-57
2023/12/21 00:04:25;;;;;;;;;;;;;;;;;;5041233;28;4577;-57
2023/12/21 00:06:51;;;;;;;;;;;;;;;;;;5044592;28;3633;-58
2023/12/21 00:09:16;;;;;;;;;;;;;;;;;;5043648;28;5113;-56
2023/12/21 00:11:41;;;;;;;;;;;;;;;;;;5042964;28;5182;-57
2023/12/21 00:14:07;;;;;;;;;;;;;;;;;;5042852;28;4508;-57
2023/12/21 00:16:32;;;;;;;;;;;;;;;;;;5042623;28;5212;-56
2023/12/21 00:18:57;;;;;;;;;;;;;;;;;;5048557;28;1157;-57
2023/12/21 00:21:22;;;;;;;;;;;;;;;;;;5027558;28;5123;-57
2023/12/21 00:23:48;;;;;;;;;;;;;;;;;;5041941;28;5037;-57
2023/12/21 00:26:13;;;;;;;;;;;;;;;;;;5042133;28;5134;-57
2023/12/21 00:28:38;;;;;;;;;;;;;;;;;;5044470;28;5530;-57
2023/12/21 00:31:04;;;;;;;;;;;;;;;;;;5043029;28;3555;-57
2023/12/21 00:33:29;;;;;;;;;;;;;;;;;;5044356;28;5244;-57
2023/12/21 00:35:54;;;;;;;;;;;;;;;;;;5038598;28;5378;-57
2023/12/21 00:38:19;;;;;;;;;;;;;;;;;;5046622;28;5068;-58
2023/12/21 00:40:45;;;;;;;;;;;;;;;;;;5045761;28;4984;-57
2023/12/21 00:43:10;;;;;;;;;;;;;;;;;;5045838;28;3534;-58
2023/12/21 00:45:35;;;;;;;;;;;;;;;;;;5039471;28;4896;-57
2023/12/21 00:48:01;;;;;;;;;;;;;;;;;;5041055;28;5177;-57
2023/12/21 00:50:26;;;;;;;;;;;;;;;;;;5039353;28;5012;-57
2023/12/21 00:52:51;;;;;;;;;;;;;;;;;;5037651;28;5096;-56
2023/12/21 00:55:16;;;;;;;;;;;;;;;;;;5035455;28;3511;-57
2023/12/21 00:57:42;;;;;;;;;;;;;;;;;;5041757;28;5123;-58
2023/12/21 01:00:07;;;;;;;;;;;;;;;;;;5038153;28;5105;-58
2023/12/21 01:02:34;;;;;;;;;;;;;;;;;;5040425;28;5019;-59
2023/12/21 01:04:59;;;;;;;;;;;;;;;;;;5038851;28;5104;-58
2023/12/21 01:07:24;;;;;;;;;;;;;;;;;;5038765;28;5210;-59
2023/12/21 01:09:49;;;;;;;;;;;;;;;;;;5043882;28;3600;-59
2023/12/21 01:12:15;;;;;;;;;;;;;;;;;;5037666;28;4705;-58
2023/12/21 01:14:41;;;;;;;;;;;;;;;;;;5037476;28;5172;-58
2023/12/21 01:17:06;;;;;;;;;;;;;;;;;;5035380;28;5098;-57
2023/12/21 01:19:31;;;;;;;;;;;;;;;;;;5039343;28;5047;-57
2023/12/21 01:21:57;;;;;;;;;;;;;;;;;;5044528;28;3495;-58
2023/12/21 01:24:22;;;;;;;;;;;;;;;;;;5043916;28;4947;-57
2023/12/21 01:26:48;;;;;;;;;;;;;;;;;;5038570;28;4535;-58
2023/12/21 01:29:13;;;;;;;;;;;;;;;;;;5038783;28;4529;-58
2023/12/21 01:31:38;;;;;;;;;;;;;;;;;;5045639;28;5025;-58
2023/12/21 01:34:06;;;;;;;;;;;;;;;;;;5042826;28;5108;-58
2023/12/21 01:36:32;;;;;;;;;;;;;;;;;;5037417;28;5022;-59
2023/12/21 01:38:57;;;;;;;;;;;;;;;;;;5039531;28;4566;-58
2023/12/21 01:41:23;;;;;;;;;;;;;;;;;;5040590;28;4675;-58
2023/12/21 01:43:48;;;;;;;;;;;;;;;;;;5035499;28;4742;-58
2023/12/21 01:46:13;;;;;;;;;;;;;;;;;;5044213;28;3493;-58
2023/12/21 01:48:38;;;;;;;;;;;;;;;;;;5034830;28;4544;-58
2023/12/21 01:51:04;;;;;;;;;;;;;;;;;;5033709;28;4538;-57
2023/12/21 01:53:30;;;;;;;;;;;;;;;;;;5036385;28;5120;-57
2023/12/21 01:55:55;;;;;;;;;;;;;;;;;;5044104;28;5152;-57
2023/12/21 01:58:20;;;;;;;;;;;;;;;;;;5039669;28;3792;-57
2023/12/21 02:00:46;;;;;;;;;;;;;;;;;;5040412;28;4449;-58
2023/12/21 02:03:11;;;;;;;;;;;;;;;;;;5040905;28;5026;-57
2023/12/21 02:05:36;;;;;;;;;;;;;;;;;;5039659;28;5031;-57
2023/12/21 02:08:01;;;;;;;;;;;;;;;;;;5042912;28;4949;-57
2023/12/21 02:10:27;;;;;;;;;;;;;;;;;;5043684;28;4669;-59
2023/12/21 02:12:52;;;;;;;;;;;;;;;;;;5046907;28;3924;-57
2023/12/21 02:15:17;;;;;;;;;;;;;;;;;;5043991;28;5018;-57
2023/12/21 02:17:43;;;;;;;;;;;;;;;;;;5047254;28;5106;-58
2023/12/21 02:20:09;;;;;;;;;;;;;;;;;;5041612;28;4523;-58
2023/12/21 02:22:34;;;;;;;;;;;;;;;;;;5040114;28;5266;-57
2023/12/21 02:25:00;;;;;;;;;;;;;;;;;;5043756;28;3548;-57
2023/12/21 02:27:25;;;;;;;;;;;;;;;;;;5043038;28;4676;-58
2023/12/21 02:29:50;;;;;;;;;;;;;;;;;;5042784;28;4958;-57
2023/12/21 02:32:16;;;;;;;;;;;;;;;;;;5046982;28;5810;-57
2023/12/21 02:34:41;;;;;;;;;;;;;;;;;;5038474;28;5222;-57
2023/12/21 02:37:06;;;;;;;;;;;;;;;;;;5043885;28;3425;-57
2023/12/21 02:39:32;;;;;;;;;;;;;;;;;;5045517;28;4448;-57
2023/12/21 02:41:57;;;;;;;;;;;;;;;;;;5043367;28;5027;-58
2023/12/21 02:44:22;;;;;;;;;;;;;;;;;;5042777;28;5085;-57
2023/12/21 02:46:47;;;;;;;;;;;;;;;;;;5044792;28;5213;-58
2023/12/21 02:49:13;;;;;;;;;;;;;;;;;;5039574;28;3543;-58
2023/12/21 02:51:38;;;;;;;;;;;;;;;;;;5043174;28;4994;-57
2023/12/21 02:54:03;;;;;;;;;;;;;;;;;;5046927;28;5510;-57
2023/12/21 02:56:29;;;;;;;;;;;;;;;;;;5039863;28;5207;-57
2023/12/21 02:58:54;;;;;;;;;;;;;;;;;;5043897;28;5175;-57
2023/12/21 03:01:19;;;;;;;;;;;;;;;;;;5043450;28;3540;-57
2023/12/21 03:03:44;;;;;;;;;;;;;;;;;;5046192;28;4964;-57
2023/12/21 03:06:10;;;;;;;;;;;;;;;;;;5041844;28;4549;-57
2023/12/21 03:08:35;;;;;;;;;;;;;;;;;;5039517;28;5031;-58
2023/12/21 03:11:00;;;;;;;;;;;;;;;;;;5038423;28;4678;-58
2023/12/21 03:13:26;;;;;;;;;;;;;;;;;;5038174;28;5192;-58
2023/12/21 03:15:51;;;;;;;;;;;;;;;;;;5037231;28;3714;-58
2023/12/21 03:18:16;;;;;;;;;;;;;;;;;;5043615;28;4602;-58
2023/12/21 03:20:41;;;;;;;;;;;;;;;;;;5042865;28;5082;-58
2023/12/21 03:23:07;;;;;;;;;;;;;;;;;;5045640;28;5184;-58
2023/12/21 03:25:32;;;;;;;;;;;;;;;;;;5042714;28;5209;-59
2023/12/21 03:27:59;;;;;;;;;;;;;;;;;;5044268;28;3793;-58
2023/12/21 03:30:24;;;;;;;;;;;;;;;;;;5036013;28;5046;-58
2023/12/21 03:32:50;;;;;;;;;;;;;;;;;;5043720;28;4468;-59
2023/12/21 03:35:15;;;;;;;;;;;;;;;;;;5043867;28;5176;-57
2023/12/21 03:37:40;;;;;;;;;;;;;;;;;;5042970;28;5025;-58
2023/12/21 03:40:06;;;;;;;;;;;;;;;;;;5045229;28;3461;-58
2023/12/21 03:42:32;;;;;;;;;;;;;;;;;;5044974;28;5178;-57
2023/12/21 03:44:57;;;;;;;;;;;;;;;;;;5040402;28;5163;-58
2023/12/21 03:47:22;;;;;;;;;;;;;;;;;;5043866;28;4609;-58
2023/12/21 03:49:48;;;;;;;;;;;;;;;;;;5038217;28;5134;-58
2023/12/21 03:52:13;;;;;;;;;;;;;;;;;;5039604;28;3575;-58
2023/12/21 03:54:38;;;;;;;;;;;;;;;;;;5042245;28;5049;-58
2023/12/21 03:57:04;;;;;;;;;;;;;;;;;;5042640;28;4567;-57
2023/12/21 03:59:30;;;;;;;;;;;;;;;;;;5041410;28;4759;-58
2023/12/21 04:01:56;;;;;;;;;;;;;;;;;;5039168;28;5002;-58
2023/12/21 04:04:21;;;;;;;;;;;;;;;;;;5040583;28;3578;-58
2023/12/21 04:06:47;;;;;;;;;;;;;;;;;;5045733;28;4985;-57
2023/12/21 04:09:12;;;;;;;;;;;;;;;;;;5046349;28;4515;-57
2023/12/21 04:11:37;;;;;;;;;;;;;;;;;;5042549;28;5000;-58
2023/12/21 04:14:03;;;;;;;;;;;;;;;;;;5044348;28;4504;-56
2023/12/21 04:16:28;;;;;;;;;;;;;;;;;;5043474;28;5301;-58
2023/12/21 04:18:53;;;;;;;;;;;;;;;;;;5048788;28;1202;-57
2023/12/21 04:21:19;;;;;;;;;;;;;;;;;;5045263;28;5053;-58
2023/12/21 04:23:44;;;;;;;;;;;;;;;;;;5040908;28;5149;-56
2023/12/21 04:26:17;;;;;;;;;;;;;;;;;;5038635;28;5027;-57
2023/12/21 04:28:42;;;;;;;;;;;;;;;;;;5044395;28;5034;-58
2023/12/21 04:31:07;;;;;;;;;;;;;;;;;;5044530;28;1430;-58
2023/12/21 04:33:32;;;;;;;;;;;;;;;;;;5043941;28;4657;-58
2023/12/21 04:35:58;;;;;;;;;;;;;;;;;;5038798;28;5453;-59
2023/12/21 04:38:23;;;;;;;;;;;;;;;;;;5046908;28;5071;-58
2023/12/21 04:40:48;;;;;;;;;;;;;;;;;;5046753;28;4937;-58
2023/12/21 04:43:13;;;;;;;;;;;;;;;;;;5042896;28;3482;-58
2023/12/21 04:45:39;;;;;;;;;;;;;;;;;;5041427;28;5111;-59
2023/12/21 04:48:04;;;;;;;;;;;;;;;;;;5044704;28;4552;-57
2023/12/21 04:50:29;;;;;;;;;;;;;;;;;;5042109;28;5079;-58
2023/12/21 04:52:55;;;;;;;;;;;;;;;;;;5042449;28;5072;-57
2023/12/21 04:55:20;;;;;;;;;;;;;;;;;;5041474;28;3651;-58
2023/12/21 04:57:46;;;;;;;;;;;;;;;;;;5043251;28;4997;-57
2023/12/21 05:00:11;;;;;;;;;;;;;;;;;;5042251;28;4433;-57
2023/12/21 05:02:36;;;;;;;;;;;;;;;;;;5042574;28;5076;-58
2023/12/21 05:05:02;;;;;;;;;;;;;;;;;;5037196;28;5134;-58
2023/12/21 05:07:28;;;;;;;;;;;;;;;;;;5040418;28;5157;-59
2023/12/21 05:09:59;;;;;;;;;;;;;;;;;;5042389;28;3644;-59
2023/12/21 05:12:24;;;;;;;;;;;;;;;;;;5036390;28;5003;-57
2023/12/21 05:14:50;;;;;;;;;;;;;;;;;;5041338;28;5387;-58
2023/12/21 05:17:15;;;;;;;;;;;;;;;;;;5036729;28;5234;-57
2023/12/21 05:19:42;;;;;;;;;;;;;;;;;;5040171;28;5092;-58
2023/12/21 05:22:07;;;;;;;;;;;;;;;;;;5035701;28;3516;-58
2023/12/21 05:24:32;;;;;;;;;;;;;;;;;;5039330;28;4986;-58
2023/12/21 05:26:58;;;;;;;;;;;;;;;;;;5035952;28;4526;-58
2023/12/21 05:29:23;;;;;;;;;;;;;;;;;;5038541;28;5035;-58
2023/12/21 05:31:49;;;;;;;;;;;;;;;;;;5038022;28;4628;-58
2023/12/21 05:34:14;;;;;;;;;;;;;;;;;;5038005;28;4874;-58
2023/12/21 05:36:39;;;;;;;;;;;;;;;;;;5041335;28;4598;-57
2023/12/21 05:39:05;;;;;;;;;;;;;;;;;;5040049;28;5033;-57
2023/12/21 05:41:31;;;;;;;;;;;;;;;;;;5036222;28;5139;-58
2023/12/21 05:43:56;;;;;;;;;;;;;;;;;;5040527;28;5143;-58
2023/12/21 05:46:22;;;;;;;;;;;;;;;;;;5040646;28;3500;-58
2023/12/21 05:48:47;;;;;;;;;;;;;;;;;;5037000;28;4603;-58
2023/12/21 05:51:12;;;;;;;;;;;;;;;;;;5039788;28;4475;-58
2023/12/21 05:53:37;;;;;;;;;;;;;;;;;;5042152;28;5353;-59
2023/12/21 05:56:03;;;;;;;;;;;;;;;;;;5041209;28;4693;-57
2023/12/21 05:58:28;;;;;;;;;;;;;;;;;;5042732;28;5050;-58
2023/12/21 06:00:54;;;;;;;;;;;;;;;;;;5045885;28;4045;-58
2023/12/21 06:03:19;;;;;;;;;;;;;;;;;;5043917;28;5004;-57
2023/12/21 06:05:45;;;;;;;;;;;;;;;;;;5044998;28;5001;-57
2023/12/21 06:08:10;;;;;;;;;;;;;;;;;;5042510;28;5160;-58
2023/12/21 06:10:35;;;;;;;;;;;;;;;;;;5044634;28;5076;-57
2023/12/21 06:13:01;;;;;;;;;;;;;;;;;;5046926;28;1141;-57
2023/12/21 06:15:26;;;;;;;;;;;;;;;;;;5043548;28;4502;-57
2023/12/21 06:17:51;;;;;;;;;;;;;;;;;;5036803;28;4470;-57
2023/12/21 06:20:17;;;;;;;;;;;;;;;;;;5042508;28;5200;-57
2023/12/21 06:22:42;;;;;;;;;;;;;;;;;;5041482;28;5059;-58
2023/12/21 06:25:07;;;;;;;;;;;;;;;;;;5046884;28;1237;-57
2023/12/21 06:27:33;;;;;;;;;;;;;;;;;;5038429;28;5234;-57
2023/12/21 06:29:58;;;;;;;;;;;;;;;;;;5040948;28;4946;-58
2023/12/21 06:32:24;;;;;;;;;;;;;;;;;;5045208;28;4565;-57
2023/12/21 06:34:49;;;;;;;;;;;;;;;;;;5035167;28;5148;-58
2023/12/21 06:37:15;;;;;;;;;;;;;;;;;;5045162;28;1069;-58
2023/12/21 06:39:40;;;;;;;;;;;;;;;;;;5034465;28;5331;-58
2023/12/21 06:42:05;;;;;;;;;;;;;;;;;;5033822;28;5228;-58
2023/12/21 06:44:31;;;;;;;;;;;;;;;;;;5030975;28;4974;-58
2023/12/21 06:46:56;;;;;;;;;;;;;;;;;;5043230;28;5140;-56
2023/12/21 06:49:22;;;;;;;;;;;;;;;;;;5041160;28;3483;-57
2023/12/21 06:51:47;;;;;;;;;;;;;;;;;;5035510;28;4781;-58
2023/12/21 06:54:12;;;;;;;;;;;;;;;;;;5039076;28;5001;-59
2023/12/21 06:56:38;;;;;;;;;;;;;;;;;;5039355;28;5042;-58
2023/12/21 06:59:04;;;;;;;;;;;;;;;;;;5039323;28;4882;-58
2023/12/21 07:01:29;;;;;;;;;;;;;;;;;;5037161;28;4544;-57
2023/12/21 07:03:55;;;;;;;;;;;;;;;;;;5039049;28;3482;-59
2023/12/21 07:06:20;;;;;;;;;;;;;;;;;;5046959;28;5480;-58
2023/12/21 07:08:46;;;;;;;;;;;;;;;;;;5041614;28;4534;-58
2023/12/21 07:11:11;;;;;;;;;;;;;;;;;;5045313;28;5112;-58
2023/12/21 07:13:37;;;;;;;;;;;;;;;;;;5034534;28;5037;-57
2023/12/21 07:16:02;;;;;;;;;;;;;;;;;;5039584;28;3452;-58
2023/12/21 07:18:27;;;;;;;;;;;;;;;;;;5038395;28;4517;-59
2023/12/21 07:20:53;;;;;;;;;;;;;;;;;;5042820;28;5036;-58
2023/12/21 07:23:18;;;;;;;;;;;;;;;;;;5036560;28;5099;-58
2023/12/21 07:25:43;;;;;;;;;;;;;;;;;;5039192;28;4946;-58
2023/12/21 07:28:09;;;;;;;;;;;;;;;;;;5037428;28;3456;-57
2023/12/21 07:30:34;;;;;;;;;;;;;;;;;;5036657;28;4985;-57
2023/12/21 07:32:59;;;;;;;;;;;;;;;;;;5039153;28;5186;-58
2023/12/21 07:35:24;;;;;;;;;;;;;;;;;;5044320;28;5099;-58
2023/12/21 07:37:50;;;;;;;;;;;;;;;;;;5046997;28;5107;-57
2023/12/21 07:40:15;;;;;;;;;;;;;;;;;;5049338;28;1092;-58
2023/12/21 07:42:40;;;;;;;;;;;;;;;;;;5046317;28;4977;-57
2023/12/21 07:45:06;;;;;;;;;;;;;;;;;;5045107;28;4654;-57
2023/12/21 07:47:31;;;;;;;;;;;;;;;;;;5045014;28;4920;-57
2023/12/21 07:49:57;;;;;;;;;;;;;;;;;;5048935;28;5123;-58
2023/12/21 07:52:22;;;;;;;;;;;;;;;;;;5043722;28;3368;-58
2023/12/21 07:54:47;;;;;;;;;;;;;;;;;;5047142;28;7216;-59
2023/12/21 07:57:14;;;;;;;;;;;;;;;;;;5044602;28;4663;-62
2023/12/21 07:59:39;;;;;;;;;;;;;;;;;;5043671;28;5073;-63
2023/12/21 08:02:04;;;;;;;;;;;;;;;;;;5031453;28;5159;-68
2023/12/21 08:04:30;;;;;;;;;;;;;;;;;;5039022;28;5441;-65
2023/12/21 08:06:55;;;;;;;;;;;;;;;;;;5042209;28;3608;-66
2023/12/21 08:09:20;;;;;;;;;;;;;;;;;;5046059;28;5040;-68
2023/12/21 08:11:46;;;;;;;;;;;;;;;;;;5035647;28;5597;-65
2023/12/21 08:14:11;;;;;;;;;;;;;;;;;;5038455;28;5006;-64
2023/12/21 08:16:37;;;;;;;;;;;;;;;;;;5035355;28;4667;-61
2023/12/21 08:19:03;;;;;;;;;;;;;;;;;;5044200;28;2581;-64
2023/12/21 08:21:28;;;;;;;;;;;;;;;;;;5042153;28;4727;-63
2023/12/21 08:23:53;;;;;;;;;;;;;;;;;;5044529;28;5190;-61
2023/12/21 08:26:20;;;;;;;;;;;;;;;;;;5039959;28;5160;-63
2023/12/21 08:28:45;;;;;;;;;;;;;;;;;;5044664;28;5101;-60
2023/12/21 08:31:10;;;;;;;;;;;;;;;;;;5046159;28;1410;-65
2023/12/21 08:33:36;;;;;;;;;;;;;;;;;;5044568;28;4993;-64
2023/12/21 08:36:02;;;;;;;;;;;;;;;;;;5035987;28;5624;-64
2023/12/21 08:38:27;;;;;;;;;;;;;;;;;;5043918;28;5066;-65
2023/12/21 08:40:52;;;;;;;;;;;;;;;;;;5042996;28;4695;-64
2023/12/21 08:43:18;;;;;;;;;;;;;;;;;;5040616;28;3826;-66
2023/12/21 08:45:43;;;;;;;;;;;;;;;;;;5047654;28;4945;-65
2023/12/21 08:48:08;;;;;;;;;;;;;;;;;;5047259;28;4956;-65
2023/12/21 08:50:34;;;;;;;;;;;;;;;;;;5043548;28;5887;-64
2023/12/21 08:53:00;;;;;;;;;;;;;;;;;;5045615;28;5249;-65
2023/12/21 08:55:27;;;;;;;;;;;;;;;;;;5044247;28;5104;-63
2023/12/21 08:57:53;;;;;;;;;;;;;;;;;;5046079;28;2108;-63
2023/12/21 09:00:18;;;;;;;;;;;;;;;;;;5039819;28;4867;-61
2023/12/21 09:02:43;;;;;;;;;;;;;;;;;;5046554;28;4847;-64
2023/12/21 09:05:12;;;;;;;;;;;;;;;;;;5041950;28;5426;-59
2023/12/21 09:07:37;;;;;;;;;;;;;;;;;;5043417;28;5087;-65
2023/12/21 09:10:03;;;;;;;;;;;;;;;;;;5039377;28;3657;-64
2023/12/21 09:12:28;;;;;;;;;;;;;;;;;;5045260;28;4922;-63
2023/12/21 09:14:54;;;;;;;;;;;;;;;;;;5043140;28;4963;-64
2023/12/21 09:17:19;;;;;;;;;;;;;;;;;;5044119;28;5077;-64
2023/12/21 09:19:45;;;;;;;;;;;;;;;;;;5043866;28;5180;-66
2023/12/21 09:22:10;;;;;;;;;;;;;;;;;;5046971;28;1284;-66
2023/12/21 09:24:37;;;;;;;;;;;;;;;;;;5044012;28;5119;-64
2023/12/21 09:27:02;;;;;;;;;;;;;;;;;;5040385;28;5073;-66
2023/12/21 09:29:27;;;;;;;;;;;;;;;;;;5037627;28;4695;-64
2023/12/21 09:31:55;;;;;;;;;;;;;;;;;;5043625;28;5128;-65
2023/12/21 09:34:20;;;;;;;;;;;;;;;;;;5043802;28;5575;-65
2023/12/21 09:36:45;;;;;;;;;;;;;;;;;;5046957;28;5477;-63
2023/12/21 09:39:12;;;;;;;;;;;;;;;;;;5041707;28;4614;-62
2023/12/21 09:41:37;;;;;;;;;;;;;;;;;;5043046;28;5047;-66
2023/12/21 09:44:03;;;;;;;;;;;;;;;;;;5042332;28;4538;-63
2023/12/21 09:46:28;;;;;;;;;;;;;;;;;;5045076;28;5202;-65
2023/12/21 09:48:54;;;;;;;;;;;;;;;;;;5044957;28;3413;-62
2023/12/21 09:51:19;;;;;;;;;;;;;;;;;;5043575;28;5794;-64
2023/12/21 09:53:44;;;;;;;;;;;;;;;;;;5039827;28;5096;-67
2023/12/21 09:56:11;;;;;;;;;;;;;;;;;;5039573;28;4962;-65
2023/12/21 09:58:36;;;;;;;;;;;;;;;;;;5034334;28;4668;-65
2023/12/21 10:01:02;;;;;;;;;;;;;;;;;;5040847;28;3585;-65
2023/12/21 10:03:27;;;;;;;;;;;;;;;;;;5043141;28;5000;-66
2023/12/21 10:05:52;;;;;;;;;;;;;;;;;;5045412;28;4812;-65
2023/12/21 10:08:18;;;;;;;;;;;;;;;;;;5044626;28;4725;-65
2023/12/21 10:10:43;;;;;;;;;;;;;;;;;;5041659;28;5237;-66
2023/12/21 10:13:09;;;;;;;;;;;;;;;;;;5025276;28;3532;-66
2023/12/21 10:15:34;;;;;;;;;;;;;;;;;;5042458;28;5155;-65
2023/12/21 10:17:59;;;;;;;;;;;;;;;;;;5043132;28;4756;-65
2023/12/21 10:20:26;;;;;;;;;;;;;;;;;;5046071;28;4794;-68
2023/12/21 10:22:51;;;;;;;;;;;;;;;;;;5040252;28;5257;-65
2023/12/21 10:25:17;;;;;;;;;;;;;;;;;;5045192;28;1350;-64
2023/12/21 10:27:51;;;;;;;;;;;;;;;;;;5040663;28;5157;-66
2023/12/21 10:30:19;;;;;;;;;;;;;;;;;;5041545;28;5037;-65
2023/12/21 10:32:44;;;;;;;;;;;;;;;;;;5049024;28;4529;-64
2023/12/21 10:35:11;;;;;;;;;;;;;;;;;;5045637;28;5213;-64
2023/12/21 10:37:36;;;;;;;;;;;;;;;;;;5043413;28;5044;-66
2023/12/21 10:40:01;;;;;;;;;;;;;;;;;;5048952;28;3811;-64
2023/12/21 10:42:27;;;;;;;;;;;;;;;;;;5038789;28;4960;-66
2023/12/21 10:44:52;;;;;;;;;;;;;;;;;;5047904;28;5268;-66
2023/12/21 10:47:17;;;;;;;;;;;;;;;;;;5046285;28;5220;-66
2023/12/21 10:49:43;;;;;;;;;;;;;;;;;;5060047;28;5188;-66
2023/12/21 10:52:09;;;;;;;;;;;;;;;;;;5036363;28;1201;-65
2023/12/21 10:54:34;;;;;;;;;;;;;;;;;;5044803;28;4983;-66
2023/12/21 10:57:00;;;;;;;;;;;;;;;;;;5048426;28;4964;-65
2023/12/21 10:59:25;;;;;;;;;;;;;;;;;;5041813;28;4966;-65
2023/12/21 11:01:50;;;;;;;;;;;;;;;;;;5045294;28;4913;-65
2023/12/21 11:04:16;;;;;;;;;;;;;;;;;;5043095;28;3533;-65
2023/12/21 11:06:42;;;;;;;;;;;;;;;;;;5046423;28;4805;-65
2023/12/21 11:09:09;;;;;;;;;;;;;;;;;;5044218;28;4507;-65
2023/12/21 11:11:34;;;;;;;;;;;;;;;;;;5048303;28;5068;-64
2023/12/21 11:14:00;;;;;;;;;;;;;;;;;;5047775;28;5220;-65
2023/12/21 11:16:36;;;;;;;;;;;;;;;;;;5042840;28;5073;-67
2023/12/21 11:19:02;;;;;;;;;;;;;;;;;;5047371;28;3764;-65
2023/12/21 11:21:28;;;;;;;;;;;;;;;;;;5045164;28;5199;-64
2023/12/21 11:23:53;;;;;;;;;;;;;;;;;;5043439;28;5030;-64
2023/12/21 11:26:19;;;;;;;;;;;;;;;;;;5042536;28;4724;-64
2023/12/21 11:28:44;;;;;;;;;;;;;;;;;;5041457;28;5077;-64
2023/12/21 11:31:13;;;;;;;;;;;;;;;;;;5044274;28;1792;-65
2023/12/21 11:33:39;;;;;;;;;;;;;;;;;;5046598;28;5017;-63
2023/12/21 11:36:04;;;;;;;;;;;;;;;;;;5044390;28;4872;-66
2023/12/21 11:38:48;;;;;;;;;;;;;;;;;;5047012;28;4963;-65
2023/12/21 11:41:13;;;;;;;;;;;;;;;;;;5048795;28;5119;-66
2023/12/21 11:43:40;;;;;;;;;;;;;;;;;;5042962;28;4579;-65
2023/12/21 11:46:07;;;;;;;;;;;;;;;;;;5043047;28;2405;-66
2023/12/21 11:48:33;;;;;;;;;;;;;;;;;;5039744;28;5081;-66
2023/12/21 11:51:02;;;;;;;;;;;;;;;;;;5046083;28;4522;-66
2023/12/21 11:53:28;;;;;;;;;;;;;;;;;;5046879;28;5012;-66
2023/12/21 11:55:53;;;;;;;;;;;;;;;;;;5051891;28;4471;-66
2023/12/21 11:58:19;;;;;;;;;;;;;;;;;;5045806;28;3628;-68
2023/12/21 12:00:54;;;;;;;;;;;;;;;;;;5039059;28;5080;-66
2023/12/21 12:03:20;;;;;;;;;;;;;;;;;;5042810;28;5066;-66
2023/12/21 12:05:45;;;;;;;;;;;;;;;;;;5040369;28;5818;-64
2023/12/21 12:08:11;;;;;;;;;;;;;;;;;;5047371;28;5101;-65
2023/12/21 12:10:36;;;;;;;;;;;;;;;;;;5047921;28;5103;-67
2023/12/21 12:13:02;;;;;;;;;;;;;;;;;;5047726;28;1242;-65
2023/12/21 12:15:27;;;;;;;;;;;;;;;;;;5046725;28;4471;-65
2023/12/21 12:17:53;;;;;;;;;;;;;;;;;;5038010;28;5095;-65
2023/12/21 12:20:19;;;;;;;;;;;;;;;;;;5043388;28;4702;-65
2023/12/21 12:22:44;;;;;;;;;;;;;;;;;;5047084;28;5091;-67
2023/12/21 12:25:10;;;;;;;;;;;;;;;;;;5045865;28;1225;-64
2023/12/21 12:27:35;;;;;;;;;;;;;;;;;;5053156;28;5034;-65
2023/12/21 12:30:00;;;;;;;;;;;;;;;;;;5046798;28;4956;-65
2023/12/21 12:32:26;;;;;;;;;;;;;;;;;;5044528;28;4969;-66
2023/12/21 12:34:51;;;;;;;;;;;;;;;;;;5036355;28;6033;-65
2023/12/21 12:37:19;;;;;;;;;;;;;;;;;;5041529;28;3512;-65
2023/12/21 12:39:47;;;;;;;;;;;;;;;;;;5047143;28;5078;-65
2023/12/21 12:42:13;;;;;;;;;;;;;;;;;;5040181;28;4504;-65
2023/12/21 12:44:38;;;;;;;;;;;;;;;;;;5041005;28;5340;-63
2023/12/21 12:47:05;;;;;;;;;;;;;;;;;;5036788;28;5119;-66
2023/12/21 12:49:34;;;;;;;;;;;;;;;;;;5036253;28;5201;-64
2023/12/21 12:51:59;;;;;;;;;;;;;;;;;;5040943;28;3504;-63
2023/12/21 12:54:31;;;;;;;;;;;;;;;;;;5032270;28;4590;-61
2023/12/21 12:56:59;;;;;;;;;;;;;;;;;;5040161;28;5079;-61
2023/12/21 12:59:25;;;;;;;;;;;;;;;;;;5044861;28;4818;-62
2023/12/21 13:01:51;;;;;;;;;;;;;;;;;;5035992;28;5280;-66
2023/12/21 13:04:16;;;;;;;;;;;;;;;;;;5038687;28;3459;-66
2023/12/21 13:06:41;;;;;;;;;;;;;;;;;;5034833;28;4481;-66
2023/12/21 13:09:07;;;;;;;;;;;;;;;;;;5035556;28;5061;-65
2023/12/21 13:11:33;;;;;;;;;;;;;;;;;;5044514;28;4993;-63
2023/12/21 13:13:58;;;;;;;;;;;;;;;;;;5041571;28;5114;-65
2023/12/21 13:16:23;;;;;;;;;;;;;;;;;;5033656;28;5136;-63
2023/12/21 13:18:49;;;;;;;;;;;;;;;;;;5041378;28;3788;-66
2023/12/21 13:21:14;;;;;;;;;;;;;;;;;;5042901;28;5163;-65
2023/12/21 13:23:39;;;;;;;;;;;;;;;;;;5046805;28;5029;-65
2023/12/21 13:26:08;;;;;;;;;;;;;;;;;;5040892;28;5123;-64
2023/12/21 13:28:33;;;;;;;;;;;;;;;;;;5041113;28;4514;-65
2023/12/21 13:30:58;;;;;;;;;;;;;;;;;;5039573;28;3516;-68
2023/12/21 13:33:24;;;;;;;;;;;;;;;;;;5045390;28;5252;-65
2023/12/21 13:35:49;;;;;;;;;;;;;;;;;;5039981;28;5981;-67
2023/12/21 13:38:15;;;;;;;;;;;;;;;;;;5045354;28;5122;-64
2023/12/21 13:40:41;;;;;;;;;;;;;;;;;;5042861;28;5042;-66
2023/12/21 13:43:06;;;;;;;;;;;;;;;;;;5054163;28;3577;-66
2023/12/21 13:45:32;;;;;;;;;;;;;;;;;;5038342;28;4646;-62
2023/12/21 13:47:58;;;;;;;;;;;;;;;;;;5045099;28;5197;-64
2023/12/21 13:50:23;;;;;;;;;;;;;;;;;;5040287;28;4957;-62
2023/12/21 13:52:48;;;;;;;;;;;;;;;;;;5038424;28;4940;-64
2023/12/21 13:55:14;;;;;;;;;;;;;;;;;;5039095;28;3682;-63
2023/12/21 13:57:40;;;;;;;;;;;;;;;;;;5046195;28;5030;-64
2023/12/21 14:00:07;;;;;;;;;;;;;;;;;;5045083;28;4884;-61
2023/12/21 14:02:32;;;;;;;;;;;;;;;;;;5038918;28;5126;-58
2023/12/21 14:04:58;;;;;;;;;;;;;;;;;;5041812;28;5367;-60
2023/12/21 14:07:23;;;;;;;;;;;;;;;;;;5045890;28;5176;-60
2023/12/21 14:09:48;;;;;;;;;;;;;;;;;;5045735;28;3709;-58
2023/12/21 14:12:14;;;;;;;;;;;;;;;;;;5041996;28;4911;-59
2023/12/21 14:14:39;;;;;;;;;;;;;;;;;;5041874;28;5104;-62
2023/12/21 14:17:05;;;;;;;;;;;;;;;;;;5037925;28;5082;-58
2023/12/21 14:19:30;;;;;;;;;;;;;;;;;;5043782;28;4628;-60
2023/12/21 14:21:56;;;;;;;;;;;;;;;;;;5042277;28;1224;-59
2023/12/21 14:24:21;;;;;;;;;;;;;;;;;;5042200;28;5294;-62
2023/12/21 14:26:46;;;;;;;;;;;;;;;;;;5040564;28;5112;-61
2023/12/21 14:29:12;;;;;;;;;;;;;;;;;;5040909;28;5135;-62
2023/12/21 14:31:37;;;;;;;;;;;;;;;;;;5043446;28;5159;-61
2023/12/21 14:34:02;;;;;;;;;;;;;;;;;;5041102;28;5056;-59
2023/12/21 14:36:28;;;;;;;;;;;;;;;;;;5045890;28;5029;-59
2023/12/21 14:38:54;;;;;;;;;;;;;;;;;;5041186;28;5061;-61
2023/12/21 14:41:19;;;;;;;;;;;;;;;;;;5041495;28;5256;-58
2023/12/21 14:43:45;;;;;;;;;;;;;;;;;;5044898;28;4651;-61
2023/12/21 14:46:10;;;;;;;;;;;;;;;;;;5040286;28;3670;-64
2023/12/21 14:48:36;;;;;;;;;;;;;;;;;;5041800;28;4611;-60
2023/12/21 14:51:02;;;;;;;;;;;;;;;;;;5039194;28;5053;-66
2023/12/21 14:53:27;;;;;;;;;;;;;;;;;;5044151;28;5099;-64
2023/12/21 14:55:52;;;;;;;;;;;;;;;;;;5042273;28;5100;-65
2023/12/21 14:58:18;;;;;;;;;;;;;;;;;;5044051;28;3698;-65
2023/12/21 15:00:43;;;;;;;;;;;;;;;;;;5044096;28;5083;-61
2023/12/21 15:03:08;;;;;;;;;;;;;;;;;;5043359;28;4903;-65
2023/12/21 15:05:33;;;;;;;;;;;;;;;;;;5038565;28;4779;-65
2023/12/21 15:07:59;;;;;;;;;;;;;;;;;;5041436;28;5096;-60
2023/12/21 15:10:26;;;;;;;;;;;;;;;;;;5044540;28;5149;-67
2023/12/21 15:12:51;;;;;;;;;;;;;;;;;;5041494;28;1471;-64
2023/12/21 15:15:17;;;;;;;;;;;;;;;;;;5043337;28;5083;-64
2023/12/21 15:17:42;;;;;;;;;;;;;;;;;;5044906;28;5129;-63
2023/12/21 15:20:07;;;;;;;;;;;;;;;;;;5042278;28;5108;-66
2023/12/21 15:22:33;;;;;;;;;;;;;;;;;;5040934;28;5203;-64
2023/12/21 15:24:59;;;;;;;;;;;;;;;;;;5041872;28;3249;-62
2023/12/21 15:27:24;;;;;;;;;;;;;;;;;;5044460;28;5095;-65
2023/12/21 15:29:49;;;;;;;;;;;;;;;;;;5044403;28;4631;-63
2023/12/21 15:32:15;;;;;;;;;;;;;;;;;;5040526;28;5195;-62
2023/12/21 15:34:40;;;;;;;;;;;;;;;;;;5042667;28;5159;-64
2023/12/21 15:37:06;;;;;;;;;;;;;;;;;;5035597;28;3439;-60
2023/12/21 15:39:31;;;;;;;;;;;;;;;;;;5032063;28;4704;-61
2023/12/21 15:41:57;;;;;;;;;;;;;;;;;;5042803;28;5132;-64
2023/12/21 15:44:23;;;;;;;;;;;;;;;;;;5042145;28;4685;-60
2023/12/21 15:46:49;;;;;;;;;;;;;;;;;;5043731;28;5134;-63
2023/12/21 15:49:14;;;;;;;;;;;;;;;;;;5043329;28;3230;-64
2023/12/21 15:51:39;;;;;;;;;;;;;;;;;;5043400;28;4714;-63
2023/12/21 15:54:07;;;;;;;;;;;;;;;;;;5043542;28;4661;-63
2023/12/21 15:56:32;;;;;;;;;;;;;;;;;;5041716;28;5157;-62
2023/12/21 15:58:57;;;;;;;;;;;;;;;;;;5041249;28;5672;-64
2023/12/21 16:01:23;;;;;;;;;;;;;;;;;;5046244;28;4877;-60
2023/12/21 16:03:48;;;;;;;;;;;;;;;;;;5046040;28;3408;-60
2023/12/21 16:06:13;;;;;;;;;;;;;;;;;;5041823;28;4864;-61
2023/12/21 16:08:39;;;;;;;;;;;;;;;;;;5038279;28;4973;-62
2023/12/21 16:11:06;;;;;;;;;;;;;;;;;;5043216;28;5056;-61
2023/12/21 16:13:31;;;;;;;;;;;;;;;;;;5045389;28;5158;-61
2023/12/21 16:15:57;;;;;;;;;;;;;;;;;;5044049;28;3791;-60
2023/12/21 16:18:23;;;;;;;;;;;;;;;;;;5046209;28;4795;-63
2023/12/21 16:20:50;;;;;;;;;;;;;;;;;;5045202;28;5317;-62
2023/12/21 16:23:17;;;;;;;;;;;;;;;;;;5044976;28;5177;-58
2023/12/21 16:25:42;;;;;;;;;;;;;;;;;;5042544;28;4563;-59
2023/12/21 16:28:07;;;;;;;;;;;;;;;;;;5045202;28;2020;-60
2023/12/21 16:30:33;;;;;;;;;;;;;;;;;;5047909;28;5129;-59
2023/12/21 16:32:58;;;;;;;;;;;;;;;;;;5040856;28;4590;-59
2023/12/21 16:35:24;;;;;;;;;;;;;;;;;;5042683;28;5139;-58
2023/12/21 16:37:51;;;;;;;;;;;;;;;;;;5046114;28;4660;-63
2023/12/21 16:40:19;;;;;;;;;;;;;;;;;;5038119;28;3473;-65
2023/12/21 16:42:45;;;;;;;;;;;;;;;;;;5042513;28;4519;-63
2023/12/21 16:45:10;;;;;;;;;;;;;;;;;;5038298;28;4623;-64
2023/12/21 16:47:35;;;;;;;;;;;;;;;;;;5040096;28;5148;-68
2023/12/21 16:50:02;;;;;;;;;;;;;;;;;;5037639;28;4576;-63
2023/12/21 16:52:27;;;;;;;;;;;;;;;;;;5038131;28;5102;-65